Terminal Aerodrome Forecast
Issued by NWS

Current Version | Previous Version | Text Only | Print | Product List | Glossary On
Versions: 1 2 3 4 5 6 7 8 9 10 11 12
000
FTUS45 KGGW 020500
TAFSDY
TAF
KSDY 020537Z 0206/0306 23015KT P6SM SCT180
     FM021200 30015G25KT P6SM VCSH BKN024
     FM030000 34013KT P6SM BKN110
      AMD LTD TO CLD VIS AND WIND=

USA.gov is the U.S. government's official web portal to all federal, state and local government web resources and services.